Time;durP1;ratioP1;P1;durP2;ratioP2;P2;SDS_P1;SDS_P2;PMS_P1;PMS_P2;Temp;Humidity;BMP_temperature;BMP_pressure;BME280_temperature;BME280_humidity;BME280_pressure;Samples;Min_cycle;Max_cycle;Signal;HPM_P1;HPM_P2
2022/10/21 00:00:44;;;;;;;;;;;23.20;45.90;;;;;;474795;251;1246;-53
2022/10/21 00:02:45;;;;;;;;;;;23.20;45.90;;;;;;474564;251;1215;-53
2022/10/21 00:04:47;;;;;;;;;;;23.20;45.80;;;;;;474996;251;1217;-54
2022/10/21 00:06:48;;;;;;;;;;;23.20;45.70;;;;;;474597;251;1226;-54
2022/10/21 00:08:49;;;;;;;;;;;23.20;45.60;;;;;;474972;251;1370;-54
2022/10/21 00:10:50;;;;;;;;;;;23.30;45.60;;;;;;474628;251;1236;-54
2022/10/21 00:12:52;;;;;;;;;;;23.30;45.50;;;;;;474775;251;1230;-53
2022/10/21 00:14:53;;;;;;;;;;;23.20;45.40;;;;;;474809;251;1223;-54
2022/10/21 00:16:54;;;;;;;;;;;23.30;45.40;;;;;;474814;251;2150;-54
2022/10/21 00:18:56;;;;;;;;;;;23.30;45.30;;;;;;474791;251;1225;-54
2022/10/21 00:20:57;;;;;;;;;;;23.30;45.30;;;;;;474555;251;1203;-53
2022/10/21 00:22:58;;;;;;;;;;;23.30;45.20;;;;;;474604;251;1168;-54
2022/10/21 00:25:00;;;;;;;;;;;23.30;45.20;;;;;;474564;251;1260;-53
2022/10/21 00:27:02;;;;;;;;;;;23.30;45.10;;;;;;474985;251;1281;-54
2022/10/21 00:29:03;;;;;;;;;;;23.30;45.10;;;;;;474759;251;1373;-53
2022/10/21 00:31:04;;;;;;;;;;;23.30;45.00;;;;;;474791;251;1232;-54
2022/10/21 00:33:06;;;;;;;;;;;23.30;45.00;;;;;;474558;251;1209;-54
2022/10/21 00:35:07;;;;;;;;;;;23.30;45.00;;;;;;474648;251;1530;-53
2022/10/21 00:37:08;;;;;;;;;;;23.30;44.80;;;;;;474525;251;2193;-53
2022/10/21 00:39:10;;;;;;;;;;;23.30;44.80;;;;;;474638;251;1258;-53
2022/10/21 00:41:11;;;;;;;;;;;23.30;44.70;;;;;;474754;251;1244;-54
2022/10/21 00:43:12;;;;;;;;;;;23.30;44.70;;;;;;474742;251;1289;-54
2022/10/21 00:45:14;;;;;;;;;;;23.30;44.70;;;;;;474633;251;1283;-53
2022/10/21 00:47:15;;;;;;;;;;;23.30;44.70;;;;;;474552;251;1193;-53
2022/10/21 00:49:17;;;;;;;;;;;23.30;44.60;;;;;;475008;251;1272;-53
2022/10/21 00:51:18;;;;;;;;;;;23.30;44.60;;;;;;474905;251;1313;-53
2022/10/21 00:53:19;;;;;;;;;;;23.30;44.60;;;;;;474587;251;1184;-53
2022/10/21 00:55:21;;;;;;;;;;;23.30;44.50;;;;;;474565;251;1227;-53
2022/10/21 00:57:22;;;;;;;;;;;23.30;44.50;;;;;;474716;251;2161;-53
2022/10/21 00:59:23;;;;;;;;;;;23.30;44.40;;;;;;474576;251;1213;-53
2022/10/21 01:01:25;;;;;;;;;;;23.30;44.30;;;;;;474702;251;1188;-53
2022/10/21 01:03:26;;;;;;;;;;;23.30;44.20;;;;;;474652;251;1236;-53
2022/10/21 01:05:27;;;;;;;;;;;23.30;44.30;;;;;;474557;251;1231;-54
2022/10/21 01:07:29;;;;;;;;;;;23.30;44.20;;;;;;474512;251;1413;-53
2022/10/21 01:09:30;;;;;;;;;;;23.30;44.20;;;;;;474831;251;1318;-53
2022/10/21 01:11:31;;;;;;;;;;;23.30;44.10;;;;;;474617;251;1692;-54
2022/10/21 01:13:33;;;;;;;;;;;23.30;44.20;;;;;;474489;251;1358;-53
2022/10/21 01:15:34;;;;;;;;;;;23.30;44.20;;;;;;474625;251;1252;-53
2022/10/21 01:17:35;;;;;;;;;;;23.30;44.10;;;;;;474508;251;2169;-54
2022/10/21 01:19:37;;;;;;;;;;;23.30;44.00;;;;;;474550;251;1253;-53
2022/10/21 01:21:38;;;;;;;;;;;23.30;44.20;;;;;;474682;251;1248;-53
2022/10/21 01:23:39;;;;;;;;;;;23.20;44.40;;;;;;474924;251;1367;-54
2022/10/21 01:25:41;;;;;;;;;;;23.20;44.50;;;;;;474744;251;1625;-53
2022/10/21 01:27:42;;;;;;;;;;;23.20;44.60;;;;;;474959;251;1188;-53
2022/10/21 01:29:43;;;;;;;;;;;23.20;44.80;;;;;;474552;251;1299;-53
2022/10/21 01:31:45;;;;;;;;;;;23.20;44.90;;;;;;474606;251;1353;-53
2022/10/21 01:33:46;;;;;;;;;;;23.20;44.90;;;;;;474694;251;1224;-53
2022/10/21 01:35:47;;;;;;;;;;;23.20;45.00;;;;;;474568;251;1165;-53
2022/10/21 01:37:49;;;;;;;;;;;23.20;45.10;;;;;;474583;251;2209;-53
2022/10/21 01:39:50;;;;;;;;;;;23.20;45.10;;;;;;474708;251;1210;-53
2022/10/21 01:41:52;;;;;;;;;;;23.10;45.10;;;;;;474776;251;1430;-53
2022/10/21 01:43:53;;;;;;;;;;;23.10;45.20;;;;;;474548;251;1392;-54
2022/10/21 01:45:54;;;;;;;;;;;23.10;45.20;;;;;;474812;251;1242;-53
2022/10/21 01:47:56;;;;;;;;;;;23.10;45.30;;;;;;474545;251;1216;-54
2022/10/21 01:49:57;;;;;;;;;;;23.10;45.30;;;;;;474971;251;1163;-53
2022/10/21 01:51:58;;;;;;;;;;;23.10;45.30;;;;;;474652;251;1274;-53
2022/10/21 01:54:00;;;;;;;;;;;23.20;45.30;;;;;;474604;251;1256;-53
2022/10/21 01:56:01;;;;;;;;;;;23.20;45.30;;;;;;474843;251;1182;-54
2022/10/21 01:58:02;;;;;;;;;;;23.20;45.30;;;;;;474831;251;2149;-54
2022/10/21 02:00:04;;;;;;;;;;;23.10;45.40;;;;;;474608;251;1235;-53
2022/10/21 02:02:05;;;;;;;;;;;23.10;45.40;;;;;;474542;251;1190;-53
2022/10/21 02:04:06;;;;;;;;;;;23.10;45.40;;;;;;474608;251;1246;-53
2022/10/21 02:06:08;;;;;;;;;;;23.10;45.40;;;;;;474484;251;1175;-53
2022/10/21 02:08:09;;;;;;;;;;;23.20;45.40;;;;;;474580;251;1369;-53
2022/10/21 02:10:10;;;;;;;;;;;23.10;45.40;;;;;;474608;251;1519;-53
2022/10/21 02:12:12;;;;;;;;;;;23.10;45.50;;;;;;474588;251;1273;-53
2022/10/21 02:14:13;;;;;;;;;;;23.10;45.50;;;;;;474637;251;1231;-53
2022/10/21 02:16:14;;;;;;;;;;;23.10;45.50;;;;;;474710;251;1173;-53
2022/10/21 02:18:16;;;;;;;;;;;23.10;45.60;;;;;;474787;251;2205;-54
2022/10/21 02:20:17;;;;;;;;;;;23.10;45.60;;;;;;474767;251;1329;-53
2022/10/21 02:22:18;;;;;;;;;;;23.10;45.60;;;;;;474563;251;1293;-53
2022/10/21 02:24:20;;;;;;;;;;;23.10;45.60;;;;;;474587;251;1181;-53
2022/10/21 02:26:21;;;;;;;;;;;23.10;45.60;;;;;;474937;251;1243;-53
2022/10/21 02:28:22;;;;;;;;;;;23.10;45.60;;;;;;474672;251;1321;-53
2022/10/21 02:30:24;;;;;;;;;;;23.10;45.60;;;;;;474570;251;1409;-53
2022/10/21 02:32:25;;;;;;;;;;;23.10;45.60;;;;;;474784;251;1305;-53
2022/10/21 02:34:29;;;;;;;;;;;23.10;45.60;;;;;;474553;251;1274;-53
2022/10/21 02:36:28;;;;;;;;;;;23.10;45.70;;;;;;474628;251;2281;-54
2022/10/21 02:38:29;;;;;;;;;;;23.10;45.70;;;;;;474709;251;2205;-53
2022/10/21 02:40:30;;;;;;;;;;;23.10;45.70;;;;;;474703;251;1187;-53
2022/10/21 02:42:32;;;;;;;;;;;23.10;45.70;;;;;;474812;251;1291;-53
2022/10/21 02:44:33;;;;;;;;;;;23.10;45.70;;;;;;474573;251;1201;-53
2022/10/21 02:46:35;;;;;;;;;;;23.10;45.80;;;;;;474561;251;1357;-54
2022/10/21 02:48:37;;;;;;;;;;;23.10;45.80;;;;;;474704;251;1371;-53
2022/10/21 02:50:38;;;;;;;;;;;23.10;45.80;;;;;;474768;251;1248;-53
2022/10/21 02:52:39;;;;;;;;;;;23.10;45.80;;;;;;474402;251;1270;-54
2022/10/21 02:54:40;;;;;;;;;;;23.10;45.80;;;;;;474547;251;1779;-53
2022/10/21 02:56:42;;;;;;;;;;;23.10;45.80;;;;;;474375;251;1595;-53
2022/10/21 02:58:43;;;;;;;;;;;23.10;45.80;;;;;;474907;251;2273;-54
2022/10/21 03:00:44;;;;;;;;;;;23.10;45.80;;;;;;474527;251;1293;-53
2022/10/21 03:02:46;;;;;;;;;;;23.00;45.80;;;;;;474590;251;1639;-54
2022/10/21 03:04:47;;;;;;;;;;;23.10;45.80;;;;;;474517;251;1331;-54
2022/10/21 03:06:48;;;;;;;;;;;23.10;45.80;;;;;;474579;251;1342;-53
2022/10/21 03:08:50;;;;;;;;;;;23.10;45.90;;;;;;474557;251;1228;-54
2022/10/21 03:10:51;;;;;;;;;;;23.10;45.90;;;;;;474536;251;1264;-54
2022/10/21 03:12:52;;;;;;;;;;;23.10;45.80;;;;;;474738;251;1221;-53
2022/10/21 03:14:54;;;;;;;;;;;23.10;45.90;;;;;;474561;251;1201;-53
2022/10/21 03:16:55;;;;;;;;;;;23.10;45.90;;;;;;474727;251;1344;-53
2022/10/21 03:18:56;;;;;;;;;;;23.10;45.90;;;;;;474650;251;2200;-53
2022/10/21 03:20:58;;;;;;;;;;;23.10;45.90;;;;;;474549;251;1324;-53
2022/10/21 03:22:59;;;;;;;;;;;23.10;45.90;;;;;;474498;251;1259;-53
2022/10/21 03:25:00;;;;;;;;;;;23.10;45.90;;;;;;474555;251;1228;-53
2022/10/21 03:27:02;;;;;;;;;;;23.10;46.00;;;;;;474701;251;1274;-53
2022/10/21 03:29:03;;;;;;;;;;;23.10;46.00;;;;;;474733;251;1296;-54
2022/10/21 03:31:04;;;;;;;;;;;23.10;46.00;;;;;;474584;251;1246;-53
2022/10/21 03:33:06;;;;;;;;;;;23.10;45.90;;;;;;474605;251;1524;-53
2022/10/21 03:35:07;;;;;;;;;;;23.10;46.00;;;;;;474510;251;1290;-53
2022/10/21 03:37:08;;;;;;;;;;;23.10;46.00;;;;;;474628;251;1315;-53
2022/10/21 03:39:10;;;;;;;;;;;23.10;46.00;;;;;;474524;251;2185;-53
2022/10/21 03:41:11;;;;;;;;;;;23.10;46.00;;;;;;474763;251;1268;-54
2022/10/21 03:43:12;;;;;;;;;;;23.10;46.00;;;;;;474577;251;1231;-53
2022/10/21 03:45:13;;;;;;;;;;;23.10;46.10;;;;;;474563;251;1232;-54
2022/10/21 03:47:15;;;;;;;;;;;23.10;46.10;;;;;;474745;251;1266;-53
2022/10/21 03:49:16;;;;;;;;;;;23.00;46.00;;;;;;474581;251;1277;-53
2022/10/21 03:51:18;;;;;;;;;;;23.10;46.10;;;;;;474520;251;1287;-53
2022/10/21 03:53:19;;;;;;;;;;;23.00;46.00;;;;;;474744;251;1284;-53
2022/10/21 03:55:22;;;;;;;;;;;23.00;46.00;;;;;;474494;251;1697;-53
2022/10/21 03:57:22;;;;;;;;;;;23.10;46.10;;;;;;474635;251;1394;-53
2022/10/21 03:59:23;;;;;;;;;;;23.10;46.10;;;;;;474547;251;2177;-53
2022/10/21 04:01:24;;;;;;;;;;;23.10;46.00;;;;;;474459;251;1316;-53
2022/10/21 04:03:25;;;;;;;;;;;23.10;46.10;;;;;;474639;251;1380;-53
2022/10/21 04:05:27;;;;;;;;;;;23.10;46.00;;;;;;474452;251;1327;-54
2022/10/21 04:07:28;;;;;;;;;;;23.10;46.10;;;;;;474436;251;1275;-53
2022/10/21 04:09:29;;;;;;;;;;;23.10;46.00;;;;;;474609;251;1528;-53
2022/10/21 04:11:31;;;;;;;;;;;23.10;46.10;;;;;;474818;251;1310;-54
2022/10/21 04:13:32;;;;;;;;;;;23.10;46.10;;;;;;474465;251;1622;-53
2022/10/21 04:15:33;;;;;;;;;;;23.00;46.10;;;;;;474429;251;1319;-54
2022/10/21 04:17:35;;;;;;;;;;;23.10;46.10;;;;;;474591;251;1202;-53
2022/10/21 04:19:36;;;;;;;;;;;23.10;46.10;;;;;;474426;251;2209;-53
2022/10/21 04:21:37;;;;;;;;;;;23.10;46.10;;;;;;474455;251;1196;-54
2022/10/21 04:23:39;;;;;;;;;;;23.10;46.10;;;;;;474731;251;1234;-53
2022/10/21 04:25:40;;;;;;;;;;;23.00;46.10;;;;;;474567;251;1285;-53
2022/10/21 04:27:41;;;;;;;;;;;23.10;46.10;;;;;;474653;251;1243;-53
2022/10/21 04:29:43;;;;;;;;;;;23.10;46.10;;;;;;474581;251;1205;-53
2022/10/21 04:31:44;;;;;;;;;;;23.10;46.10;;;;;;474574;251;1301;-53
2022/10/21 04:33:46;;;;;;;;;;;23.10;46.20;;;;;;474666;251;1223;-54
2022/10/21 04:35:47;;;;;;;;;;;23.00;46.10;;;;;;474464;251;2359;-53
2022/10/21 04:37:48;;;;;;;;;;;23.00;46.10;;;;;;474654;251;1259;-53
2022/10/21 04:39:49;;;;;;;;;;;23.10;46.10;;;;;;474790;251;2196;-53
2022/10/21 04:41:51;;;;;;;;;;;23.10;46.10;;;;;;474483;251;1369;-53
2022/10/21 04:43:52;;;;;;;;;;;23.10;46.20;;;;;;474517;251;2194;-53
2022/10/21 04:45:53;;;;;;;;;;;23.10;46.20;;;;;;474691;251;1181;-54
2022/10/21 04:47:55;;;;;;;;;;;23.10;46.10;;;;;;474497;251;1298;-53
2022/10/21 04:49:56;;;;;;;;;;;23.10;46.20;;;;;;474936;251;1245;-53
2022/10/21 04:51:57;;;;;;;;;;;23.10;46.20;;;;;;474643;251;1544;-53
2022/10/21 04:53:59;;;;;;;;;;;23.00;46.10;;;;;;474622;251;1315;-53
2022/10/21 04:56:00;;;;;;;;;;;23.10;46.20;;;;;;474534;251;1163;-53
2022/10/21 04:58:01;;;;;;;;;;;23.00;46.20;;;;;;474810;251;1179;-53
2022/10/21 05:00:02;;;;;;;;;;;23.10;46.20;;;;;;474398;251;2213;-53
2022/10/21 05:02:04;;;;;;;;;;;23.00;46.20;;;;;;474411;251;1365;-53
2022/10/21 05:04:05;;;;;;;;;;;23.10;46.20;;;;;;474466;251;1257;-53
2022/10/21 05:06:06;;;;;;;;;;;23.10;46.20;;;;;;474416;251;1370;-53
2022/10/21 05:08:08;;;;;;;;;;;23.10;46.20;;;;;;474486;251;1281;-53
2022/10/21 05:10:09;;;;;;;;;;;23.10;46.20;;;;;;474497;251;1514;-53
2022/10/21 05:12:10;;;;;;;;;;;23.10;46.20;;;;;;474621;251;1335;-53
2022/10/21 05:14:12;;;;;;;;;;;23.10;46.20;;;;;;474597;251;1333;-53
2022/10/21 05:16:13;;;;;;;;;;;23.10;46.20;;;;;;474530;251;1256;-54
2022/10/21 05:18:14;;;;;;;;;;;23.10;46.20;;;;;;474495;251;1294;-53
2022/10/21 05:20:16;;;;;;;;;;;23.10;46.20;;;;;;474422;251;2188;-53
2022/10/21 05:22:17;;;;;;;;;;;23.10;46.20;;;;;;474441;251;1610;-53
2022/10/21 05:24:18;;;;;;;;;;;23.10;46.20;;;;;;474668;251;1209;-53
2022/10/21 05:26:20;;;;;;;;;;;23.10;46.20;;;;;;474557;251;1200;-53
2022/10/21 05:28:21;;;;;;;;;;;23.10;46.20;;;;;;474506;251;1312;-53
2022/10/21 05:30:22;;;;;;;;;;;23.10;46.20;;;;;;474699;251;1222;-53
2022/10/21 05:32:24;;;;;;;;;;;23.10;46.30;;;;;;474600;251;1245;-53
2022/10/21 05:34:25;;;;;;;;;;;23.00;46.20;;;;;;474854;251;1276;-54
2022/10/21 05:36:26;;;;;;;;;;;23.10;46.20;;;;;;474652;251;1276;-53
2022/10/21 05:38:28;;;;;;;;;;;23.10;46.20;;;;;;474431;251;1224;-53
2022/10/21 05:40:29;;;;;;;;;;;23.10;46.30;;;;;;474524;251;2129;-53
2022/10/21 05:42:30;;;;;;;;;;;23.10;46.30;;;;;;474583;251;1196;-54
2022/10/21 05:44:32;;;;;;;;;;;23.10;46.20;;;;;;474665;251;1194;-54
2022/10/21 05:46:33;;;;;;;;;;;23.10;46.20;;;;;;474429;251;1275;-53
2022/10/21 05:48:34;;;;;;;;;;;23.10;46.30;;;;;;474839;251;1714;-53
2022/10/21 05:50:36;;;;;;;;;;;23.10;46.30;;;;;;474499;251;1439;-54
2022/10/21 05:52:37;;;;;;;;;;;23.10;46.20;;;;;;474470;251;1229;-53
2022/10/21 05:54:39;;;;;;;;;;;23.10;46.30;;;;;;474499;251;1312;-54
2022/10/21 05:56:41;;;;;;;;;;;23.10;46.30;;;;;;474435;251;1219;-53
2022/10/21 05:58:42;;;;;;;;;;;23.10;46.30;;;;;;474491;251;1370;-53
2022/10/21 06:00:43;;;;;;;;;;;23.10;46.30;;;;;;474485;251;2130;-54
2022/10/21 06:02:44;;;;;;;;;;;23.10;46.30;;;;;;474483;251;1195;-54
2022/10/21 06:04:46;;;;;;;;;;;23.10;46.30;;;;;;474627;251;1263;-53
2022/10/21 06:06:47;;;;;;;;;;;23.10;46.30;;;;;;474458;251;1214;-53
2022/10/21 06:08:49;;;;;;;;;;;23.10;46.30;;;;;;474557;251;1268;-53
2022/10/21 06:10:50;;;;;;;;;;;23.10;46.30;;;;;;474407;251;1204;-53
2022/10/21 06:12:51;;;;;;;;;;;23.10;46.30;;;;;;474531;251;1267;-54
2022/10/21 06:14:54;;;;;;;;;;;23.10;46.30;;;;;;474795;251;1276;-54
2022/10/21 06:16:54;;;;;;;;;;;23.10;46.30;;;;;;474509;251;1812;-53
2022/10/21 06:18:56;;;;;;;;;;;23.10;46.30;;;;;;474337;251;2161;-53
2022/10/21 06:20:57;;;;;;;;;;;23.10;46.30;;;;;;474572;251;1272;-53
2022/10/21 06:22:58;;;;;;;;;;;23.10;46.30;;;;;;474444;251;1197;-53
2022/10/21 06:25:00;;;;;;;;;;;23.00;46.30;;;;;;474659;251;1184;-54
2022/10/21 06:27:01;;;;;;;;;;;23.10;46.30;;;;;;474356;251;1233;-53
2022/10/21 06:29:02;;;;;;;;;;;23.10;46.30;;;;;;474544;251;1203;-53
2022/10/21 06:31:04;;;;;;;;;;;23.10;46.30;;;;;;474620;251;1225;-53
2022/10/21 06:33:05;;;;;;;;;;;23.10;46.40;;;;;;474464;251;1243;-53
2022/10/21 06:35:06;;;;;;;;;;;23.00;46.20;;;;;;474358;251;1192;-53
2022/10/21 06:37:08;;;;;;;;;;;23.10;46.30;;;;;;474267;251;1335;-54
2022/10/21 06:39:09;;;;;;;;;;;23.10;46.30;;;;;;474448;251;2150;-53
2022/10/21 06:41:11;;;;;;;;;;;23.10;46.30;;;;;;474447;251;1634;-53
2022/10/21 06:43:12;;;;;;;;;;;23.10;46.30;;;;;;474649;251;1146;-53
2022/10/21 06:45:13;;;;;;;;;;;23.10;46.30;;;;;;474668;251;1217;-53
2022/10/21 06:47:16;;;;;;;;;;;23.10;46.30;;;;;;474416;251;1364;-54
2022/10/21 06:49:16;;;;;;;;;;;23.10;46.30;;;;;;474449;251;2317;-53
2022/10/21 06:51:17;;;;;;;;;;;23.10;46.40;;;;;;474755;251;1106;-53
2022/10/21 06:53:19;;;;;;;;;;;23.00;46.30;;;;;;474520;251;1194;-53
2022/10/21 06:55:20;;;;;;;;;;;23.10;46.40;;;;;;474595;251;1747;-53
2022/10/21 06:57:21;;;;;;;;;;;23.10;46.30;;;;;;474211;251;1268;-53
2022/10/21 06:59:23;;;;;;;;;;;23.10;46.30;;;;;;474531;251;2201;-53
2022/10/21 07:01:24;;;;;;;;;;;23.10;46.30;;;;;;474398;251;1249;-53
2022/10/21 07:03:25;;;;;;;;;;;23.10;46.30;;;;;;474515;251;1753;-53
2022/10/21 07:05:27;;;;;;;;;;;23.10;46.40;;;;;;474401;251;1387;-53
2022/10/21 07:07:28;;;;;;;;;;;23.10;46.30;;;;;;474453;251;1219;-53
2022/10/21 07:09:30;;;;;;;;;;;23.10;46.30;;;;;;474142;251;1193;-54
2022/10/21 07:11:31;;;;;;;;;;;23.10;46.30;;;;;;474434;251;1272;-53
2022/10/21 07:13:32;;;;;;;;;;;23.10;46.30;;;;;;474190;251;1239;-54
2022/10/21 07:15:34;;;;;;;;;;;23.10;46.40;;;;;;474301;251;1250;-53
2022/10/21 07:17:35;;;;;;;;;;;23.10;46.40;;;;;;474330;251;1175;-53
2022/10/21 07:19:36;;;;;;;;;;;23.10;46.40;;;;;;474682;251;2181;-53
2022/10/21 07:21:38;;;;;;;;;;;23.10;46.40;;;;;;474400;251;1181;-54
2022/10/21 07:23:39;;;;;;;;;;;23.10;46.40;;;;;;474384;251;1331;-54
2022/10/21 07:25:40;;;;;;;;;;;23.10;46.40;;;;;;474271;251;1236;-53
2022/10/21 07:27:42;;;;;;;;;;;23.10;46.40;;;;;;474520;251;1183;-54
2022/10/21 07:29:43;;;;;;;;;;;23.00;46.40;;;;;;474504;251;1405;-54
2022/10/21 07:31:44;;;;;;;;;;;23.10;46.50;;;;;;474256;251;1329;-54
2022/10/21 07:33:46;;;;;;;;;;;23.10;46.40;;;;;;474339;251;1239;-53
2022/10/21 07:35:47;;;;;;;;;;;23.10;46.40;;;;;;474338;251;1219;-53
2022/10/21 07:37:48;;;;;;;;;;;23.10;46.40;;;;;;474503;251;1344;-53
2022/10/21 07:39:50;;;;;;;;;;;23.10;46.40;;;;;;474332;251;2162;-53
2022/10/21 07:41:51;;;;;;;;;;;23.10;46.40;;;;;;474384;251;1379;-53
2022/10/21 07:43:53;;;;;;;;;;;23.10;46.40;;;;;;474454;251;1304;-53
2022/10/21 07:45:54;;;;;;;;;;;23.10;46.40;;;;;;474260;251;1200;-53
2022/10/21 07:47:55;;;;;;;;;;;23.10;46.40;;;;;;474249;251;1243;-53
2022/10/21 07:49:57;;;;;;;;;;;23.10;46.40;;;;;;474480;251;1192;-53
2022/10/21 07:51:58;;;;;;;;;;;23.00;46.40;;;;;;474395;251;1283;-53
2022/10/21 07:53:59;;;;;;;;;;;23.10;46.40;;;;;;474237;251;1232;-53
2022/10/21 07:56:01;;;;;;;;;;;23.10;46.40;;;;;;474351;251;1446;-53
2022/10/21 07:58:03;;;;;;;;;;;23.10;46.40;;;;;;474276;251;1362;-53
2022/10/21 08:00:04;;;;;;;;;;;23.10;46.40;;;;;;474270;251;2161;-54
2022/10/21 08:02:05;;;;;;;;;;;23.10;46.50;;;;;;474229;251;1187;-53
2022/10/21 08:04:06;;;;;;;;;;;23.10;46.40;;;;;;474350;251;1232;-53
2022/10/21 08:06:07;;;;;;;;;;;23.10;46.40;;;;;;474689;251;1184;-53
2022/10/21 08:08:09;;;;;;;;;;;23.10;46.40;;;;;;474243;251;1297;-54
2022/10/21 08:10:10;;;;;;;;;;;23.10;46.50;;;;;;474396;251;1207;-54
2022/10/21 08:12:12;;;;;;;;;;;23.10;46.50;;;;;;474394;251;1193;-53
2022/10/21 08:14:13;;;;;;;;;;;23.10;46.40;;;;;;474562;251;1240;-54
2022/10/21 08:16:14;;;;;;;;;;;23.10;46.40;;;;;;474435;251;1190;-53
2022/10/21 08:18:16;;;;;;;;;;;23.10;46.40;;;;;;474340;251;1203;-51
2022/10/21 08:20:17;;;;;;;;;;;23.10;46.40;;;;;;474223;251;2188;-53
2022/10/21 08:22:19;;;;;;;;;;;23.10;46.40;;;;;;474164;251;1240;-53
2022/10/21 08:24:22;;;;;;;;;;;23.10;46.50;;;;;;474250;251;1244;-54
2022/10/21 08:26:22;;;;;;;;;;;23.10;46.50;;;;;;474385;251;2046;-53
2022/10/21 08:28:23;;;;;;;;;;;23.10;46.40;;;;;;474339;251;1322;-53
2022/10/21 08:30:28;;;;;;;;;;;23.10;46.40;;;;;;474220;251;1540;-53
2022/10/21 08:32:26;;;;;;;;;;;23.10;46.40;;;;;;474073;251;1654;-53
2022/10/21 08:34:27;;;;;;;;;;;23.10;46.50;;;;;;474221;251;1239;-53
2022/10/21 08:36:29;;;;;;;;;;;23.10;46.50;;;;;;474377;251;1207;-53
2022/10/21 08:38:30;;;;;;;;;;;23.10;46.50;;;;;;474431;251;1214;-53
2022/10/21 08:40:32;;;;;;;;;;;23.10;46.50;;;;;;474200;251;2201;-54
2022/10/21 08:42:33;;;;;;;;;;;23.10;46.50;;;;;;474256;251;1234;-53
2022/10/21 08:44:34;;;;;;;;;;;23.10;46.50;;;;;;474348;251;1218;-53
2022/10/21 08:46:36;;;;;;;;;;;23.10;46.50;;;;;;474336;251;1383;-53
2022/10/21 08:48:37;;;;;;;;;;;23.10;46.50;;;;;;474337;251;1232;-53
2022/10/21 08:50:38;;;;;;;;;;;23.10;46.50;;;;;;474491;251;1226;-53
2022/10/21 08:52:40;;;;;;;;;;;23.10;46.50;;;;;;474230;251;1218;-53
2022/10/21 08:54:41;;;;;;;;;;;23.10;46.50;;;;;;474512;251;1691;-53
2022/10/21 08:56:42;;;;;;;;;;;23.20;46.50;;;;;;474423;251;1205;-52
2022/10/21 08:58:44;;;;;;;;;;;23.20;46.60;;;;;;474374;251;1371;-53
2022/10/21 09:00:45;;;;;;;;;;;23.10;46.60;;;;;;474572;251;2208;-54
2022/10/21 09:02:46;;;;;;;;;;;23.10;46.60;;;;;;474312;251;1172;-54
2022/10/21 09:04:48;;;;;;;;;;;23.20;46.50;;;;;;474441;251;1225;-54
2022/10/21 09:06:49;;;;;;;;;;;23.20;46.60;;;;;;474302;251;1256;-53
2022/10/21 09:08:51;;;;;;;;;;;23.10;46.50;;;;;;474480;251;1097;-53
2022/10/21 09:10:52;;;;;;;;;;;23.20;46.60;;;;;;474344;251;1219;-53
2022/10/21 09:12:53;;;;;;;;;;;23.20;46.60;;;;;;474437;251;1199;-53
2022/10/21 09:14:56;;;;;;;;;;;23.20;46.50;;;;;;474335;251;1224;-53
2022/10/21 09:16:56;;;;;;;;;;;23.20;46.50;;;;;;474132;251;1587;-54
2022/10/21 09:18:57;;;;;;;;;;;23.20;46.60;;;;;;474534;251;1201;-53
2022/10/21 09:20:58;;;;;;;;;;;23.20;46.50;;;;;;474516;251;2161;-53
2022/10/21 09:23:00;;;;;;;;;;;23.20;46.50;;;;;;474321;251;1518;-53
2022/10/21 09:25:01;;;;;;;;;;;23.10;46.50;;;;;;474382;251;1192;-54
2022/10/21 09:27:02;;;;;;;;;;;23.20;46.60;;;;;;474447;251;1171;-53
2022/10/21 09:29:04;;;;;;;;;;;23.20;46.60;;;;;;474361;251;1223;-53
2022/10/21 09:31:05;;;;;;;;;;;23.20;46.60;;;;;;474205;251;1240;-53
2022/10/21 09:33:06;;;;;;;;;;;23.20;46.70;;;;;;474235;251;1306;-53
2022/10/21 09:35:08;;;;;;;;;;;23.10;46.60;;;;;;474346;251;1313;-53
2022/10/21 09:37:09;;;;;;;;;;;23.20;46.70;;;;;;474313;251;1281;-53
2022/10/21 09:39:10;;;;;;;;;;;23.20;46.60;;;;;;474372;251;1306;-54
2022/10/21 09:41:12;;;;;;;;;;;23.20;46.70;;;;;;474344;251;2205;-53
2022/10/21 09:43:13;;;;;;;;;;;23.20;46.60;;;;;;474211;251;1289;-54
2022/10/21 09:45:14;;;;;;;;;;;23.20;46.70;;;;;;474209;251;1223;-53
2022/10/21 09:47:16;;;;;;;;;;;23.20;46.60;;;;;;474319;251;1203;-53
2022/10/21 09:49:17;;;;;;;;;;;23.10;46.70;;;;;;474291;251;1204;-53
2022/10/21 09:51:18;;;;;;;;;;;23.20;46.70;;;;;;474271;251;1635;-53
2022/10/21 09:53:20;;;;;;;;;;;23.20;46.80;;;;;;474072;251;1264;-53
2022/10/21 09:55:21;;;;;;;;;;;23.10;46.70;;;;;;473827;251;1300;-53
2022/10/21 09:57:23;;;;;;;;;;;23.20;46.70;;;;;;474363;251;1493;-54
2022/10/21 09:59:25;;;;;;;;;;;23.20;46.80;;;;;;474320;251;1225;-53
2022/10/21 10:01:26;;;;;;;;;;;23.20;46.70;;;;;;474246;251;2165;-54
2022/10/21 10:03:27;;;;;;;;;;;23.20;46.70;;;;;;474380;251;1205;-53
2022/10/21 10:05:28;;;;;;;;;;;23.20;46.70;;;;;;474369;251;1224;-54
2022/10/21 10:07:30;;;;;;;;;;;23.20;46.80;;;;;;474228;251;1221;-53
2022/10/21 10:09:31;;;;;;;;;;;23.20;46.80;;;;;;474256;251;1333;-53
2022/10/21 10:11:32;;;;;;;;;;;23.20;46.80;;;;;;474297;251;1302;-54
2022/10/21 10:13:34;;;;;;;;;;;23.20;46.80;;;;;;474218;251;1225;-53
2022/10/21 10:15:35;;;;;;;;;;;23.20;46.80;;;;;;474195;251;1239;-53
2022/10/21 10:17:38;;;;;;;;;;;23.20;46.70;;;;;;474496;251;1477;-53
2022/10/21 10:19:38;;;;;;;;;;;23.20;46.80;;;;;;474293;251;2303;-53
2022/10/21 10:21:39;;;;;;;;;;;23.20;46.80;;;;;;474314;251;2184;-53
2022/10/21 10:23:41;;;;;;;;;;;23.20;46.80;;;;;;474314;251;1221;-54
2022/10/21 10:25:42;;;;;;;;;;;23.20;46.80;;;;;;474350;251;1184;-53
2022/10/21 10:27:44;;;;;;;;;;;23.20;46.80;;;;;;474184;251;1262;-53
2022/10/21 10:29:45;;;;;;;;;;;23.20;46.80;;;;;;474406;251;1221;-54
2022/10/21 10:31:47;;;;;;;;;;;23.20;46.80;;;;;;474382;251;1670;-52
2022/10/21 10:33:48;;;;;;;;;;;23.10;46.80;;;;;;474512;251;1215;-53
2022/10/21 10:35:50;;;;;;;;;;;23.10;46.80;;;;;;474337;251;1156;-53
2022/10/21 10:37:51;;;;;;;;;;;23.10;46.80;;;;;;474218;251;1676;-53
2022/10/21 10:39:53;;;;;;;;;;;23.20;46.90;;;;;;474438;251;1489;-53
2022/10/21 10:41:54;;;;;;;;;;;23.10;46.80;;;;;;474336;251;2157;-53
2022/10/21 10:43:57;;;;;;;;;;;23.20;46.90;;;;;;474249;251;1268;-53
2022/10/21 10:45:58;;;;;;;;;;;23.20;46.90;;;;;;474296;251;1339;-53
2022/10/21 10:48:02;;;;;;;;;;;23.20;46.90;;;;;;474318;251;1184;-53
2022/10/21 10:50:01;;;;;;;;;;;23.20;46.90;;;;;;474045;251;2188;-53
2022/10/21 10:52:03;;;;;;;;;;;23.10;46.90;;;;;;474433;251;1185;-53
2022/10/21 10:54:04;;;;;;;;;;;23.20;46.90;;;;;;474273;251;1252;-53
2022/10/21 10:56:05;;;;;;;;;;;23.20;46.90;;;;;;474412;251;1293;-54
2022/10/21 10:58:07;;;;;;;;;;;23.20;46.90;;;;;;474297;251;1227;-54
2022/10/21 11:00:08;;;;;;;;;;;23.20;47.00;;;;;;474350;251;1305;-53
2022/10/21 11:02:10;;;;;;;;;;;23.20;46.90;;;;;;474051;251;2157;-53
2022/10/21 11:04:11;;;;;;;;;;;23.20;46.70;;;;;;474340;251;1843;-54
2022/10/21 11:06:12;;;;;;;;;;;23.20;46.60;;;;;;474249;251;1237;-53
2022/10/21 11:08:13;;;;;;;;;;;23.20;46.40;;;;;;474267;251;1214;-53
2022/10/21 11:10:15;;;;;;;;;;;23.20;46.40;;;;;;474438;251;1204;-54
2022/10/21 11:12:16;;;;;;;;;;;23.20;46.30;;;;;;474304;251;1254;-54
2022/10/21 11:14:17;;;;;;;;;;;23.20;46.30;;;;;;474311;251;1248;-53
2022/10/21 11:16:19;;;;;;;;;;;23.20;46.10;;;;;;474616;251;1134;-53
2022/10/21 11:18:20;;;;;;;;;;;23.30;46.00;;;;;;474276;251;1773;-54
2022/10/21 11:20:22;;;;;;;;;;;23.30;46.00;;;;;;474374;251;1442;-53
2022/10/21 11:22:23;;;;;;;;;;;23.30;45.90;;;;;;474229;251;2212;-53
2022/10/21 11:24:24;;;;;;;;;;;23.20;45.80;;;;;;474324;251;1185;-53
2022/10/21 11:26:26;;;;;;;;;;;23.30;45.80;;;;;;474337;251;1160;-53
2022/10/21 11:28:27;;;;;;;;;;;23.30;45.70;;;;;;474423;251;1201;-53
2022/10/21 11:30:28;;;;;;;;;;;23.30;45.70;;;;;;474391;251;1196;-53
2022/10/21 11:32:30;;;;;;;;;;;23.30;45.50;;;;;;474431;251;1143;-53
2022/10/21 11:34:31;;;;;;;;;;;23.30;45.50;;;;;;474556;251;1201;-53
2022/10/21 11:36:33;;;;;;;;;;;23.30;45.50;;;;;;474485;251;1264;-53
2022/10/21 11:38:34;;;;;;;;;;;23.30;45.40;;;;;;474380;251;1310;-53
2022/10/21 11:40:35;;;;;;;;;;;23.30;45.40;;;;;;474462;251;1259;-54
2022/10/21 11:42:37;;;;;;;;;;;23.30;45.40;;;;;;474253;251;2205;-53
2022/10/21 11:44:38;;;;;;;;;;;23.30;45.30;;;;;;474377;251;1250;-54
2022/10/21 11:46:39;;;;;;;;;;;23.30;45.20;;;;;;474355;251;1313;-54
2022/10/21 11:48:41;;;;;;;;;;;23.30;45.20;;;;;;474186;251;1422;-54
2022/10/21 11:50:42;;;;;;;;;;;23.30;45.20;;;;;;474309;251;1281;-53
2022/10/21 11:52:43;;;;;;;;;;;23.30;45.20;;;;;;474326;251;1248;-54
2022/10/21 11:54:45;;;;;;;;;;;23.30;45.20;;;;;;474384;251;1367;-54
2022/10/21 11:56:46;;;;;;;;;;;23.30;45.10;;;;;;474350;251;1282;-54